createdAt,value
2017-07-19T08:06:46.759Z,60.1
2017-07-19T08:07:54.199Z,60.1
2017-07-19T08:08:55.809Z,59.4
2017-07-19T08:09:57.509Z,58.9
2017-07-19T08:11:00.301Z,58.9
2017-07-19T08:12:03.387Z,58.5
2017-07-19T08:13:05.025Z,58.6
2017-07-19T08:14:09.125Z,58.6
2017-07-19T08:15:19.353Z,58.1
2017-07-19T08:16:21.256Z,58.5
2017-07-19T08:17:23.181Z,58.3
2017-07-19T08:18:32.553Z,58.5
2017-07-19T08:19:35.780Z,57.5
2017-07-19T08:20:38.312Z,58.1
2017-07-19T08:21:40.022Z,58.4
2017-07-19T08:22:42.746Z,58.2
2017-07-19T08:23:45.788Z,58.3
2017-07-19T08:24:48.559Z,57.7
2017-07-19T08:25:51.218Z,57.9
2017-07-19T08:26:54.578Z,57.9
2017-07-19T08:27:57.493Z,58.4
2017-07-19T08:28:59.121Z,57.7
2017-07-19T08:30:01.646Z,57.9
2017-07-19T08:31:08.891Z,57.5
2017-07-19T08:32:11.904Z,57.6
2017-07-19T08:33:15.808Z,57.1
2017-07-19T08:34:18.509Z,57.4
2017-07-19T08:35:21.358Z,57.3
2017-07-19T08:36:22.999Z,57.2
2017-07-19T11:55:51.831Z,14.9
2017-07-19T11:56:58.037Z,15.4
2017-07-19T11:58:00.278Z,15.2
2017-07-19T11:59:02.871Z,13.6
2017-07-19T12:00:04.531Z,14.4
2017-07-19T12:01:06.172Z,15.5
2017-07-19T12:02:07.931Z,15.4
2017-07-19T12:03:09.995Z,14.9
2017-07-19T12:04:11.672Z,16.1
2017-07-19T12:05:13.370Z,15.9
2017-07-19T12:06:15.051Z,16.6
2017-07-19T12:07:17.931Z,17.2
2017-07-19T12:08:19.799Z,17.3
2017-07-19T12:09:21.437Z,16.9
2017-07-19T12:10:23.111Z,17.3
2017-07-19T12:11:25.749Z,17.1
2017-07-19T12:12:27.488Z,16.9
2017-07-19T12:13:29.595Z,17.4
2017-07-19T12:14:31.317Z,18.1
2017-07-19T12:15:33.000Z,18.5
2017-07-19T12:16:34.725Z,18.9
2017-07-19T12:17:36.416Z,19.3
2017-07-19T12:18:39.332Z,20.4
2017-07-19T12:19:41.066Z,21.0
2017-07-19T12:20:42.840Z,21.7
2017-07-19T12:21:44.571Z,22.1
2017-07-19T12:22:46.278Z,22.8
2017-07-19T12:23:48.245Z,23.3
2017-07-19T12:24:49.992Z,22.6
2017-07-19T12:25:52.057Z,23.5
2017-07-19T12:26:53.757Z,24.2
2017-07-19T12:27:55.515Z,25.0
2017-07-19T12:28:57.442Z,25.5
2017-07-19T12:29:59.891Z,25.2
2017-07-19T12:31:01.585Z,26.0
2017-07-19T12:32:03.261Z,25.8
2017-07-19T12:33:05.215Z,26.3
2017-07-19T12:34:07.326Z,25.7
2017-07-19T12:35:10.061Z,25.5
2017-07-19T12:36:11.811Z,25.9
2017-07-19T12:37:13.491Z,25.7
2017-07-19T12:38:15.232Z,26.5
2017-07-19T12:39:17.829Z,26.9
2017-07-19T12:40:19.608Z,27.6
2017-07-19T12:41:21.275Z,28.0
2017-07-19T12:42:22.956Z,28.6
2017-07-19T12:43:25.471Z,28.6
2017-07-19T12:44:27.514Z,28.9
2017-07-19T12:45:29.449Z,28.6
2017-07-19T12:46:31.209Z,28.9
2017-07-19T12:47:32.922Z,28.5
2017-07-19T12:48:34.616Z,28.6
2017-07-19T12:49:36.777Z,28.7
2017-07-19T12:50:38.461Z,28.4
2017-07-19T12:51:40.537Z,28.1
2017-07-19T12:52:42.318Z,28.0
2017-07-19T12:53:44.809Z,28.4
2017-07-19T12:54:46.929Z,28.6
2017-07-19T12:55:49.153Z,28.8
2017-07-19T12:56:51.496Z,28.9
2017-07-19T12:57:53.253Z,28.5
2017-07-19T12:58:55.222Z,28.7
2017-07-19T12:59:59.388Z,29.3
2017-07-19T13:01:01.358Z,29.5
2017-07-19T13:02:03.157Z,29.1
2017-07-19T13:03:04.853Z,29.2
2017-07-19T13:04:06.646Z,29.5
2017-07-19T13:05:09.675Z,30.1
2017-07-19T13:06:11.481Z,29.8
2017-07-19T13:07:13.153Z,29.9
2017-07-19T13:08:14.955Z,30.2
2017-07-19T13:09:16.748Z,30.4
2017-07-19T13:10:19.881Z,30.9
2017-07-19T13:11:21.483Z,30.6
2017-07-19T13:12:23.277Z,30.2
2017-07-19T13:13:25.492Z,30.3
2017-07-19T13:14:27.548Z,30.9
2017-07-19T13:15:29.773Z,31.9
2017-07-19T13:16:31.575Z,31.1
2017-07-19T13:17:33.282Z,31.8
2017-07-19T13:18:34.988Z,31.6
2017-07-19T13:19:36.810Z,31.3
2017-07-19T13:20:38.944Z,31.9
2017-07-19T13:21:41.404Z,32.2
2017-07-19T13:22:43.139Z,33.0
2017-07-19T13:23:44.827Z,32.8
2017-07-19T13:24:46.520Z,33.5
2017-07-19T13:25:48.469Z,33.5
2017-07-19T13:26:50.254Z,33.5
2017-07-19T13:27:52.135Z,33.8
2017-07-19T13:28:53.884Z,34.3
2017-07-19T13:29:55.613Z,34.3
2017-07-19T13:30:57.564Z,34.7
2017-07-19T13:31:59.194Z,34.8
2017-07-19T13:33:01.510Z,34.6
2017-07-19T13:34:03.155Z,34.5
2017-07-19T13:35:04.895Z,34.7
2017-07-19T13:36:06.827Z,34.4
2017-07-19T13:37:08.491Z,34.7
2017-07-19T13:38:10.207Z,34.8
2017-07-19T13:39:11.945Z,34.7
2017-07-19T13:40:13.568Z,34.4
2017-07-19T13:41:15.509Z,34.5
2017-07-19T13:42:17.230Z,34.6
2017-07-19T13:43:18.869Z,35.0
2017-07-19T13:44:21.040Z,35.3
2017-07-19T13:45:22.985Z,35.5
2017-07-19T13:46:27.599Z,36.4
2017-07-19T13:47:29.381Z,36.4
2017-07-19T13:48:40.639Z,36.4
2017-07-19T13:49:50.845Z,36.6
2017-07-19T13:50:52.853Z,36.8
2017-07-19T13:52:03.359Z,36.9
2017-07-19T13:53:11.395Z,37.3
2017-07-19T13:54:14.574Z,36.8
2017-07-19T13:55:26.152Z,37.0
2017-07-19T13:56:31.728Z,37.3
2017-07-19T14:10:58.901Z,38.0
2017-07-19T14:15:55.637Z,39.8
2017-07-19T14:16:59.137Z,41.0
2017-07-19T17:17:44.954Z,82.5
2017-07-19T17:18:47.952Z,86.3
2017-07-19T17:19:49.474Z,87.6
2017-07-19T17:20:51.173Z,88.5
2017-07-19T17:21:52.707Z,88.6
2017-07-19T17:22:55.410Z,88.8
2017-07-19T17:23:56.339Z,89.4
2017-07-19T17:24:58.036Z,89.2
2017-07-19T17:25:59.581Z,89.5
2017-07-19T17:27:01.259Z,89.8
2017-07-19T17:28:03.337Z,90.4
2017-07-19T17:29:05.023Z,90.3
2017-07-19T17:30:06.739Z,90.9
2017-07-19T17:31:08.325Z,90.7
2017-07-19T17:32:09.891Z,90.5
2017-07-19T17:33:11.893Z,90.7
2017-07-19T17:34:13.440Z,91.1
2017-07-19T17:35:15.017Z,90.7
2017-07-19T17:36:16.584Z,90.6
2017-07-19T17:37:19.186Z,90.3
2017-07-19T17:38:20.940Z,90.7
2017-07-19T17:39:22.642Z,91.0
2017-07-19T17:40:24.182Z,90.4
2017-07-19T17:41:25.770Z,90.2
2017-07-19T17:42:27.330Z,90.3
2017-07-19T17:43:29.420Z,90.4
2017-07-19T17:44:30.964Z,90.6
2017-07-19T17:45:32.665Z,89.8
2017-07-19T17:46:34.402Z,90.1
2017-07-19T17:47:36.097Z,90.1
2017-07-19T17:48:38.098Z,89.7
2017-07-19T17:49:39.800Z,90.0
2017-07-19T17:50:41.486Z,90.0
2017-07-19T17:51:43.699Z,89.4
2017-07-19T17:52:45.358Z,89.6
2017-07-19T17:53:47.426Z,89.4
2017-07-19T17:54:48.990Z,89.6
2017-07-19T17:55:50.602Z,89.2
2017-07-19T17:56:52.897Z,89.1
2017-07-19T17:57:54.546Z,88.9
2017-07-19T17:58:56.470Z,88.9
2017-07-19T17:59:58.061Z,89.3
2017-07-19T18:01:00.445Z,89.4
2017-07-19T18:02:02.151Z,88.8
2017-07-19T18:03:03.983Z,88.8
2017-07-19T18:04:05.931Z,88.5
2017-07-19T18:05:07.591Z,88.8
2017-07-19T18:06:09.186Z,88.9
2017-07-19T18:07:10.743Z,88.4
2017-07-19T18:08:12.423Z,88.5
2017-07-19T18:09:14.369Z,88.6
2017-07-19T18:10:16.054Z,88.5
2017-07-19T18:11:18.500Z,89.0
2017-07-19T18:12:20.082Z,88.7
2017-07-19T18:13:21.654Z,88.7
2017-07-19T18:14:23.459Z,88.6
2017-07-19T18:15:25.343Z,88.6
2017-07-19T18:16:26.917Z,88.3
2017-07-19T18:17:31.609Z,88.8
2017-07-19T18:18:33.193Z,88.7
2017-07-19T18:19:37.464Z,89.0
2017-07-19T18:20:39.046Z,88.4
2017-07-19T18:21:43.761Z,88.5
2017-07-19T18:22:45.407Z,88.1
2017-07-19T18:23:49.780Z,88.4
2017-07-19T18:24:51.580Z,88.3
2017-07-19T18:25:56.170Z,88.2
2017-07-19T18:26:57.850Z,88.4
2017-07-19T18:28:02.269Z,88.0
2017-07-19T18:29:03.948Z,87.9
2017-07-19T18:30:08.182Z,87.9
2017-07-19T18:31:09.849Z,87.7
2017-07-19T18:32:14.014Z,88.4
2017-07-19T18:33:15.683Z,87.7
2017-07-19T18:34:20.931Z,88.0
2017-07-19T18:35:23.097Z,87.9
2017-07-19T18:36:24.753Z,87.8
2017-07-19T18:37:26.423Z,88.5
2017-07-19T18:38:30.489Z,87.7
2017-07-19T18:39:32.058Z,87.7
2017-07-19T18:40:36.780Z,87.8
2017-07-19T18:41:38.453Z,87.8
2017-07-19T18:42:46.234Z,87.7
2017-07-19T18:43:47.882Z,88.1
2017-07-19T18:44:52.278Z,87.8
2017-07-19T18:45:54.160Z,88.2
2017-07-19T18:46:58.946Z,88.2
2017-07-19T18:47:59.877Z,88.2
2017-07-19T18:49:03.063Z,87.7
2017-07-19T18:50:04.644Z,87.9
2017-07-19T18:51:08.638Z,87.7
2017-07-19T18:52:10.216Z,87.6
2017-07-19T18:53:14.621Z,87.6
2017-07-19T18:54:17.014Z,87.7
2017-07-19T18:55:20.852Z,87.5
2017-07-19T18:56:22.670Z,88.1
2017-07-19T18:57:28.564Z,87.8
2017-07-19T18:58:30.232Z,87.8
2017-07-19T18:59:32.873Z,87.9
2017-07-19T19:00:34.554Z,87.5
2017-07-19T19:01:38.701Z,87.6
2017-07-19T19:02:40.265Z,87.8
2017-07-19T19:03:47.042Z,87.2
2017-07-19T19:04:48.580Z,87.8
2017-07-19T19:05:52.949Z,87.2
2017-07-19T19:06:54.619Z,87.5
2017-07-19T19:07:58.931Z,87.4
2017-07-19T19:09:00.613Z,87.5
2017-07-19T19:10:05.560Z,87.4
2017-07-19T19:11:07.458Z,87.5
2017-07-19T19:12:09.223Z,87.7
2017-07-19T19:13:10.873Z,87.5
2017-07-19T19:14:15.325Z,87.3
2017-07-19T19:15:16.906Z,87.3
2017-07-19T19:16:21.402Z,87.7
2017-07-19T19:17:23.069Z,87.7
2017-07-19T19:18:27.450Z,87.6
2017-07-19T19:19:29.030Z,87.6
2017-07-19T19:20:33.398Z,87.6
2017-07-19T19:21:35.488Z,87.4
2017-07-19T19:22:39.597Z,87.7
2017-07-19T19:23:41.183Z,87.6
2017-07-19T19:24:45.599Z,87.8
2017-07-19T19:25:47.270Z,87.4
2017-07-19T19:26:52.972Z,87.5
2017-07-19T19:27:54.546Z,87.5
2017-07-19T19:28:57.990Z,87.0
2017-07-19T19:29:59.566Z,87.8
2017-07-19T19:31:04.031Z,87.5
2017-07-19T19:32:05.828Z,87.7
2017-07-19T19:33:10.023Z,87.6
2017-07-19T19:34:12.542Z,87.3
2017-07-19T19:35:15.041Z,87.3
2017-07-19T19:36:16.745Z,87.7
2017-07-19T19:37:18.517Z,86.9
2017-07-19T19:38:20.972Z,87.1
2017-07-19T19:39:24.325Z,86.5
2017-07-19T19:40:25.987Z,87.0
2017-07-19T19:41:30.350Z,87.3
2017-07-19T19:42:32.333Z,87.3
2017-07-19T19:43:36.431Z,86.9
2017-07-19T19:44:38.668Z,87.3
2017-07-19T19:45:42.515Z,87.3
2017-07-19T19:46:44.190Z,87.0
2017-07-19T19:47:48.614Z,87.2
2017-07-19T19:48:50.295Z,87.0
2017-07-19T19:49:54.805Z,87.0
2017-07-19T19:50:56.485Z,87.2
2017-07-19T19:52:01.342Z,87.3
2017-07-19T19:53:03.486Z,86.6
2017-07-19T19:54:06.911Z,86.7
2017-07-19T19:55:08.471Z,86.7
2017-07-19T19:56:13.556Z,86.9
2017-07-19T19:57:16.054Z,86.7
2017-07-19T19:58:19.508Z,86.9
2017-07-19T19:59:21.185Z,87.0
2017-07-19T20:00:25.518Z,87.1
2017-07-19T20:01:27.095Z,87.1
2017-07-19T20:02:31.673Z,87.2
2017-07-19T20:03:33.610Z,87.2
2017-07-19T20:04:37.772Z,87.1
2017-07-19T20:05:39.337Z,87.3
2017-07-19T20:06:43.930Z,87.2
2017-07-19T20:07:45.613Z,87.1
2017-07-19T20:08:49.958Z,87.0
2017-07-19T20:09:51.523Z,87.2
2017-07-19T20:10:56.853Z,86.9
2017-07-19T20:11:58.539Z,87.0
2017-07-19T20:13:02.200Z,87.0
2017-07-19T20:14:04.220Z,86.9
2017-07-19T20:15:08.263Z,87.0
2017-07-19T20:17:04.806Z,82.1
2017-07-19T20:18:06.361Z,82.6
2017-07-19T20:19:08.362Z,82.5
2017-07-19T20:20:09.913Z,82.8
2017-07-19T20:21:11.609Z,82.8
2017-07-19T20:22:13.175Z,83.6
2017-07-19T20:23:14.859Z,83.6
2017-07-19T20:24:17.394Z,83.6
2017-07-19T20:25:19.084Z,83.7
2017-07-19T20:26:20.622Z,83.9
2017-07-19T20:27:22.318Z,83.7
2017-07-19T20:28:23.877Z,84.2
2017-07-19T20:29:25.888Z,84.3
2017-07-19T20:30:28.180Z,84.0
2017-07-19T20:31:29.876Z,84.0
2017-07-19T20:32:31.435Z,84.1
2017-07-19T20:33:33.981Z,84.1
2017-07-19T20:34:35.870Z,83.8
2017-07-19T20:35:37.564Z,84.1
2017-07-19T20:36:39.130Z,84.0
2017-07-19T20:37:40.720Z,84.0
2017-07-19T20:38:42.280Z,84.0
2017-07-19T20:39:44.272Z,84.0
2017-07-19T20:40:45.919Z,83.9
2017-07-19T20:41:47.502Z,83.9
2017-07-19T20:42:49.153Z,84.1
2017-07-19T20:43:50.845Z,84.1
2017-07-19T20:44:52.811Z,84.1
2017-07-19T20:45:54.465Z,84.1
2017-07-19T20:46:56.121Z,84.1
2017-07-19T20:47:57.701Z,84.3
2017-07-19T20:49:00.301Z,84.2
2017-07-19T20:50:02.226Z,83.7
2017-07-19T20:51:03.783Z,83.5
2017-07-19T20:52:05.373Z,84.5
2017-07-19T20:53:06.934Z,83.5
2017-07-19T20:54:08.527Z,83.9
2017-07-19T20:55:10.510Z,83.8
2017-07-19T20:56:12.213Z,83.5
2017-07-19T20:57:13.760Z,83.7
2017-07-19T20:58:15.462Z,83.6
2017-07-19T20:59:17.139Z,83.5
2017-07-19T21:00:19.059Z,83.4
2017-07-19T21:01:20.631Z,83.8
2017-07-19T21:02:22.222Z,83.7
2017-07-19T21:03:23.769Z,83.5
2017-07-19T21:04:25.361Z,83.5
2017-07-19T21:05:27.496Z,83.5
2017-07-19T21:06:30.182Z,83.1
2017-07-19T21:07:31.743Z,82.6
2017-07-19T21:08:33.431Z,83.7
2017-07-19T21:09:35.086Z,82.8
2017-07-19T21:10:37.109Z,83.3
2017-07-19T21:11:38.658Z,82.7
2017-07-19T21:12:40.336Z,83.2
2017-07-19T21:13:41.998Z,83.1
2017-07-19T21:14:43.675Z,82.5
2017-07-19T21:15:45.618Z,82.9
2017-07-19T21:16:47.212Z,83.0
2017-07-19T21:17:48.768Z,82.5
2017-07-19T21:18:50.460Z,82.9
2017-07-19T21:19:52.117Z,82.7
2017-07-19T21:20:54.253Z,82.6
2017-07-19T21:21:55.921Z,82.1
2017-07-19T21:22:57.599Z,82.0
2017-07-19T21:23:59.158Z,82.1
2017-07-19T21:25:00.763Z,82.0
2017-07-19T21:26:02.759Z,81.8
2017-07-19T21:27:04.364Z,82.1
2017-07-19T21:28:06.014Z,82.1
2017-07-19T21:29:07.604Z,81.8
2017-07-19T21:30:09.147Z,81.7
2017-07-19T21:31:11.470Z,81.9
2017-07-19T21:32:13.019Z,82.1
2017-07-19T21:33:14.625Z,82.0
2017-07-19T21:34:16.360Z,81.7
2017-07-19T21:35:18.034Z,81.9
2017-07-19T21:36:22.541Z,82.2
2017-07-19T21:37:24.235Z,81.8
2017-07-19T21:38:28.554Z,81.8
2017-07-19T21:39:30.124Z,82.1
2017-07-19T21:40:34.483Z,82.0
2017-07-19T21:41:36.557Z,82.3
2017-07-19T21:42:40.676Z,81.8
2017-07-19T21:43:42.250Z,81.1
2017-07-19T21:44:46.735Z,81.1
2017-07-19T21:45:48.416Z,81.4
2017-07-19T21:46:53.783Z,80.7
2017-07-19T21:47:55.477Z,80.2
2017-07-19T21:48:57.697Z,81.1
2017-07-19T21:49:59.393Z,80.3
2017-07-19T21:51:02.017Z,80.5
2017-07-19T21:52:04.142Z,80.4
2017-07-19T21:53:05.689Z,80.3
2017-07-19T21:54:07.355Z,80.2
2017-07-19T21:55:11.788Z,80.4
2017-07-19T21:56:13.483Z,80.6
2017-07-19T21:57:17.976Z,80.5
2017-07-19T21:58:19.546Z,80.6
2017-07-19T21:59:23.942Z,80.1
2017-07-19T22:00:25.613Z,80.1
2017-07-19T22:01:28.326Z,79.9
2017-07-19T22:02:30.335Z,79.9
2017-07-19T22:03:34.929Z,80.1
2017-07-19T22:04:36.511Z,80.6
2017-07-19T22:05:38.904Z,80.5
2017-07-19T22:06:41.263Z,80.5
2017-07-19T22:07:44.626Z,80.4
2017-07-19T22:08:46.211Z,80.5
2017-07-19T22:09:50.754Z,80.7
2017-07-19T22:10:52.338Z,79.9
2017-07-19T22:11:57.058Z,79.6
2017-07-19T22:12:59.204Z,79.2
2017-07-19T22:14:01.060Z,79.0
2017-07-19T22:15:03.357Z,78.9
2017-07-19T22:16:09.501Z,78.9
2017-07-19T22:17:11.080Z,79.0
2017-07-19T22:18:12.948Z,78.6
2017-07-19T22:19:15.410Z,78.7
2017-07-19T22:20:18.673Z,78.1
2017-07-19T22:21:20.331Z,78.6
2017-07-19T22:22:24.499Z,79.2
2017-07-19T22:23:26.412Z,79.0
2017-07-19T22:24:31.002Z,78.8
2017-07-19T22:25:32.568Z,78.8
2017-07-19T22:26:37.082Z,79.0
2017-07-19T22:27:38.758Z,79.1
2017-07-19T22:28:43.069Z,78.9
2017-07-19T22:29:44.763Z,79.0
2017-07-19T22:30:49.124Z,79.0
2017-07-19T22:31:50.790Z,79.0
2017-07-19T22:32:55.048Z,78.8
2017-07-19T22:33:57.056Z,78.5
2017-07-19T22:35:01.470Z,78.2
2017-07-19T22:36:03.121Z,78.0
2017-07-19T22:37:07.371Z,78.3
2017-07-19T22:38:09.035Z,77.8
2017-07-19T22:39:13.538Z,77.9
2017-07-19T22:40:15.204Z,78.1
2017-07-19T22:41:19.360Z,77.1
2017-07-19T22:42:20.926Z,77.5
2017-07-19T22:43:26.548Z,77.8
2017-07-19T22:44:28.565Z,77.5
2017-07-19T22:45:30.711Z,77.2
2017-07-19T22:46:32.278Z,76.8
2017-07-19T22:47:36.932Z,77.3
2017-07-19T22:48:38.498Z,76.9
2017-07-19T22:49:41.018Z,75.6
2017-07-19T22:50:42.562Z,75.9
2017-07-19T22:51:47.339Z,76.1
2017-07-19T22:52:49.716Z,76.1
2017-07-19T22:53:53.306Z,75.7
2017-07-19T22:54:56.242Z,75.7
2017-07-19T22:55:57.796Z,75.4
2017-07-19T22:56:59.475Z,75.5
2017-07-19T22:58:03.755Z,75.1
2017-07-19T22:59:05.341Z,74.9
2017-07-19T23:00:09.525Z,74.5
2017-07-19T23:01:11.197Z,74.0
2017-07-19T23:02:15.900Z,74.3
2017-07-19T23:03:17.471Z,73.3
2017-07-19T23:04:21.759Z,73.2
2017-07-19T23:05:23.777Z,72.6
2017-07-19T23:06:27.848Z,73.1
2017-07-19T23:07:29.431Z,72.4
2017-07-19T23:08:31.052Z,72.4
2017-07-19T23:09:32.618Z,72.1
2017-07-19T23:10:38.233Z,72.3
2017-07-19T23:11:39.786Z,71.9
2017-07-19T23:12:44.721Z,71.4
2017-07-19T23:13:46.386Z,71.4
2017-07-19T23:14:51.041Z,70.8
2017-07-19T23:15:53.048Z,70.7
2017-07-19T23:16:57.341Z,70.2
2017-07-19T23:17:59.007Z,70.2
2017-07-19T23:19:03.414Z,70.0
2017-07-19T23:20:05.094Z,69.9
2017-07-19T23:21:09.693Z,69.3
2017-07-19T23:22:11.374Z,68.7
2017-07-19T23:23:15.748Z,69.0
2017-07-19T23:24:17.412Z,68.8
2017-07-19T23:25:22.871Z,67.7
2017-07-19T23:26:25.031Z,67.2
2017-07-19T23:27:26.586Z,67.0
2017-07-19T23:28:28.169Z,67.0
2017-07-19T23:29:31.851Z,67.2
2017-07-19T23:30:34.494Z,67.1
2017-07-19T23:31:37.928Z,67.3
2017-07-19T23:32:39.600Z,66.3
2017-07-19T23:33:44.007Z,67.0
2017-07-19T23:34:45.593Z,66.5
2017-07-19T23:35:50.771Z,66.4
2017-07-19T23:36:52.589Z,65.8
2017-07-19T23:37:54.240Z,65.9
2017-07-19T23:38:55.824Z,65.1
2017-07-19T23:40:00.243Z,65.4
2017-07-19T23:41:02.565Z,65.2
2017-07-19T23:42:06.397Z,65.5
2017-07-19T23:43:07.975Z,64.6
2017-07-19T23:44:12.385Z,64.7
2017-07-19T23:45:14.065Z,64.9
2017-07-19T23:46:18.436Z,64.7
2017-07-19T23:47:20.483Z,64.3
2017-07-19T23:48:24.605Z,63.9
2017-07-19T23:49:26.275Z,63.8
2017-07-19T23:50:30.602Z,63.8
2017-07-19T23:51:32.686Z,64.1
2017-07-19T23:52:36.601Z,63.8
2017-07-19T23:53:38.277Z,63.4
2017-07-19T23:54:42.735Z,63.1
2017-07-19T23:55:45.001Z,63.3
2017-07-19T23:56:48.674Z,62.7
2017-07-19T23:57:50.613Z,63.1
2017-07-19T23:58:57.159Z,62.9
2017-07-19T23:59:58.817Z,62.3
